sensor_id;sensor_type;location;lat;lon;timestamp;pressure;altitude;pressure_sealevel;temperature;humidity
74529;BME280;63009;52.584;5.932;2023-03-01T00:02:03;103289.91;;;-0.83;99.57
74529;BME280;63009;52.584;5.932;2023-03-01T00:04:30;103289.75;;;-0.87;99.64
74529;BME280;63009;52.584;5.932;2023-03-01T00:06:55;103285.31;;;-0.92;99.37
74529;BME280;63009;52.584;5.932;2023-03-01T00:09:21;103288.53;;;-1.00;98.87
74529;BME280;63009;52.584;5.932;2023-03-01T00:11:46;103262.91;;;-1.20;98.74
74529;BME280;63009;52.584;5.932;2023-03-01T00:14:12;103284.53;;;-1.19;97.88
74529;BME280;63009;52.584;5.932;2023-03-01T00:16:42;103286.97;;;-1.25;97.41
74529;BME280;63009;52.584;5.932;2023-03-01T00:19:11;103289.28;;;-1.34;96.93
74529;BME280;63009;52.584;5.932;2023-03-01T00:21:37;103266.28;;;-1.52;95.88
74529;BME280;63009;52.584;5.932;2023-03-01T00:24:02;103271.34;;;-1.55;95.50
74529;BME280;63009;52.584;5.932;2023-03-01T00:26:28;103224.63;;;-1.85;95.55
74529;BME280;63009;52.584;5.932;2023-03-01T00:28:54;103277.06;;;-1.67;96.34
74529;BME280;63009;52.584;5.932;2023-03-01T00:31:23;103280.25;;;-1.74;96.19
74529;BME280;63009;52.584;5.932;2023-03-01T00:33:52;103278.56;;;-1.73;98.23
74529;BME280;63009;52.584;5.932;2023-03-01T00:36:18;103269.03;;;-1.74;98.41
74529;BME280;63009;52.584;5.932;2023-03-01T00:38:45;103269.84;;;-1.75;98.76
74529;BME280;63009;52.584;5.932;2023-03-01T00:41:14;103261.16;;;-1.77;99.30
74529;BME280;63009;52.584;5.932;2023-03-01T00:43:39;103217.94;;;-2.05;99.47
74529;BME280;63009;52.584;5.932;2023-03-01T00:46:08;103256.63;;;-1.83;100.00
74529;BME280;63009;52.584;5.932;2023-03-01T00:48:34;103253.81;;;-1.91;99.31
74529;BME280;63009;52.584;5.932;2023-03-01T00:51:07;103259.88;;;-1.90;99.51
74529;BME280;63009;52.584;5.932;2023-03-01T00:53:33;103243.84;;;-2.05;99.46
74529;BME280;63009;52.584;5.932;2023-03-01T00:55:59;103260.31;;;-2.03;99.44
74529;BME280;63009;52.584;5.932;2023-03-01T00:58:24;103261.16;;;-2.04;99.32
74529;BME280;63009;52.584;5.932;2023-03-01T01:00:50;103251.41;;;-2.12;98.21
74529;BME280;63009;52.584;5.932;2023-03-01T01:03:15;103242.56;;;-2.18;97.80
74529;BME280;63009;52.584;5.932;2023-03-01T01:05:40;103248.59;;;-2.19;97.82
74529;BME280;63009;52.584;5.932;2023-03-01T01:08:05;103251.97;;;-2.22;97.50
74529;BME280;63009;52.584;5.932;2023-03-01T01:10:35;103235.09;;;-2.36;97.44
74529;BME280;63009;52.584;5.932;2023-03-01T01:13:01;103248.88;;;-2.37;97.32
74529;BME280;63009;52.584;5.932;2023-03-01T01:15:26;103252.28;;;-2.38;97.56
74529;BME280;63009;52.584;5.932;2023-03-01T01:17:51;103236.38;;;-2.49;97.46
74529;BME280;63009;52.584;5.932;2023-03-01T01:20:17;103242.63;;;-2.42;97.43
74529;BME280;63009;52.584;5.932;2023-03-01T01:22:42;103241.59;;;-2.47;97.68
74529;BME280;63009;52.584;5.932;2023-03-01T01:25:08;103252.69;;;-2.51;97.58
74529;BME280;63009;52.584;5.932;2023-03-01T01:27:33;103249.88;;;-2.57;98.64
74529;BME280;63009;52.584;5.932;2023-03-01T01:29:59;103235.84;;;-2.64;99.18
74529;BME280;63009;52.584;5.932;2023-03-01T01:32:24;103242.06;;;-2.59;100.00
74529;BME280;63009;52.584;5.932;2023-03-01T01:34:49;103244.97;;;-2.50;100.00
74529;BME280;63009;52.584;5.932;2023-03-01T01:37:15;103233.09;;;-2.43;100.00
74529;BME280;63009;52.584;5.932;2023-03-01T01:39:40;103240.09;;;-2.41;100.00
74529;BME280;63009;52.584;5.932;2023-03-01T01:42:05;103240.25;;;-2.36;100.00
74529;BME280;63009;52.584;5.932;2023-03-01T01:44:33;103231.03;;;-2.28;100.00
74529;BME280;63009;52.584;5.932;2023-03-01T01:47:04;103215.44;;;-2.29;100.00
74529;BME280;63009;52.584;5.932;2023-03-01T01:49:45;103231.91;;;-2.27;100.00
74529;BME280;63009;52.584;5.932;2023-03-01T01:52:22;103211.03;;;-2.32;100.00
74529;BME280;63009;52.584;5.932;2023-03-01T01:55:07;103215.59;;;-2.25;100.00
74529;BME280;63009;52.584;5.932;2023-03-01T01:57:38;103208.63;;;-2.26;100.00
74529;BME280;63009;52.584;5.932;2023-03-01T02:00:13;103210.47;;;-2.23;100.00
74529;BME280;63009;52.584;5.932;2023-03-01T02:02:40;103214.81;;;-2.22;100.00
74529;BME280;63009;52.584;5.932;2023-03-01T02:05:34;103212.41;;;-2.16;100.00
74529;BME280;63009;52.584;5.932;2023-03-01T02:08:01;103134.13;;;-2.61;100.00
74529;BME280;63009;52.584;5.932;2023-03-01T02:10:27;103202.13;;;-2.13;100.00
74529;BME280;63009;52.584;5.932;2023-03-01T02:12:53;103194.22;;;-2.18;100.00
74529;BME280;63009;52.584;5.932;2023-03-01T02:15:19;103202.06;;;-2.16;100.00
74529;BME280;63009;52.584;5.932;2023-03-01T02:17:44;103198.53;;;-2.18;100.00
74529;BME280;63009;52.584;5.932;2023-03-01T02:20:19;103208.91;;;-2.18;100.00
74529;BME280;63009;52.584;5.932;2023-03-01T02:22:48;103191.47;;;-2.24;100.00
74529;BME280;63009;52.584;5.932;2023-03-01T02:30:43;103209.72;;;-2.46;100.00
74529;BME280;63009;52.584;5.932;2023-03-01T02:33:29;103197.28;;;-2.56;100.00
74529;BME280;63009;52.584;5.932;2023-03-01T02:35:58;103189.47;;;-2.58;100.00
74529;BME280;63009;52.584;5.932;2023-03-01T02:38:25;103184.28;;;-2.58;100.00
74529;BME280;63009;52.584;5.932;2023-03-01T02:40:51;103194.81;;;-2.53;100.00
74529;BME280;63009;52.584;5.932;2023-03-01T02:43:19;103194.91;;;-2.50;100.00
74529;BME280;63009;52.584;5.932;2023-03-01T02:45:52;103185.25;;;-2.54;100.00
74529;BME280;63009;52.584;5.932;2023-03-01T02:48:19;103170.50;;;-2.57;100.00
74529;BME280;63009;52.584;5.932;2023-03-01T02:53:36;103169.50;;;-2.62;100.00
74529;BME280;63009;52.584;5.932;2023-03-01T02:56:04;103152.72;;;-2.73;100.00
74529;BME280;63009;52.584;5.932;2023-03-01T02:58:30;103158.63;;;-2.77;100.00
74529;BME280;63009;52.584;5.932;2023-03-01T03:00:56;103160.94;;;-2.85;100.00
74529;BME280;63009;52.584;5.932;2023-03-01T03:03:21;103159.19;;;-2.86;100.00
74529;BME280;63009;52.584;5.932;2023-03-01T03:05:47;103158.16;;;-2.91;100.00
74529;BME280;63009;52.584;5.932;2023-03-01T03:08:14;103146.59;;;-3.01;100.00
74529;BME280;63009;52.584;5.932;2023-03-01T03:10:41;103156.19;;;-2.98;100.00
74529;BME280;63009;52.584;5.932;2023-03-01T03:13:10;103160.41;;;-3.00;100.00
74529;BME280;63009;52.584;5.932;2023-03-01T03:15:37;103155.88;;;-3.07;100.00
74529;BME280;63009;52.584;5.932;2023-03-01T03:18:05;103149.69;;;-3.11;100.00
74529;BME280;63009;52.584;5.932;2023-03-01T03:20:32;103147.84;;;-3.15;100.00
74529;BME280;63009;52.584;5.932;2023-03-01T03:22:57;103160.72;;;-3.16;100.00
74529;BME280;63009;52.584;5.932;2023-03-01T03:25:24;103153.84;;;-3.16;100.00
74529;BME280;63009;52.584;5.932;2023-03-01T03:27:51;103152.91;;;-3.18;100.00
74529;BME280;63009;52.584;5.932;2023-03-01T03:30:22;103150.28;;;-3.19;100.00
74529;BME280;63009;52.584;5.932;2023-03-01T03:32:48;103137.09;;;-3.25;100.00
74529;BME280;63009;52.584;5.932;2023-03-01T03:35:22;103151.09;;;-3.20;100.00
74529;BME280;63009;52.584;5.932;2023-03-01T03:37:48;103139.88;;;-3.21;100.00
74529;BME280;63009;52.584;5.932;2023-03-01T03:40:41;103135.63;;;-3.19;100.00
74529;BME280;63009;52.584;5.932;2023-03-01T03:43:12;103138.16;;;-3.20;100.00
74529;BME280;63009;52.584;5.932;2023-03-01T03:45:38;103135.59;;;-3.20;100.00
74529;BME280;63009;52.584;5.932;2023-03-01T03:48:06;103140.81;;;-3.19;100.00
74529;BME280;63009;52.584;5.932;2023-03-01T03:50:32;103132.28;;;-3.16;100.00
74529;BME280;63009;52.584;5.932;2023-03-01T03:52:59;103133.06;;;-3.19;100.00
74529;BME280;63009;52.584;5.932;2023-03-01T03:55:25;103137.53;;;-3.13;100.00
74529;BME280;63009;52.584;5.932;2023-03-01T03:57:57;103137.63;;;-3.10;100.00
74529;BME280;63009;52.584;5.932;2023-03-01T04:00:23;103142.72;;;-3.13;100.00
74529;BME280;63009;52.584;5.932;2023-03-01T04:02:50;103144.69;;;-3.06;100.00
74529;BME280;63009;52.584;5.932;2023-03-01T04:05:17;103154.47;;;-2.97;100.00
74529;BME280;63009;52.584;5.932;2023-03-01T04:07:43;103153.28;;;-2.82;100.00
74529;BME280;63009;52.584;5.932;2023-03-01T04:10:15;103157.91;;;-2.73;100.00
74529;BME280;63009;52.584;5.932;2023-03-01T04:12:41;103137.25;;;-2.72;100.00
74529;BME280;63009;52.584;5.932;2023-03-01T04:15:09;103159.28;;;-2.57;100.00
74529;BME280;63009;52.584;5.932;2023-03-01T04:17:42;103154.38;;;-2.50;100.00
74529;BME280;63009;52.584;5.932;2023-03-01T04:20:17;103156.91;;;-2.51;100.00
74529;BME280;63009;52.584;5.932;2023-03-01T04:22:43;103149.09;;;-2.53;100.00
74529;BME280;63009;52.584;5.932;2023-03-01T04:25:12;103144.66;;;-2.55;100.00
74529;BME280;63009;52.584;5.932;2023-03-01T04:27:39;103152.06;;;-2.41;100.00
74529;BME280;63009;52.584;5.932;2023-03-01T04:30:05;103145.91;;;-2.44;100.00
74529;BME280;63009;52.584;5.932;2023-03-01T04:32:31;103154.63;;;-2.41;100.00
74529;BME280;63009;52.584;5.932;2023-03-01T04:34:56;103140.78;;;-2.43;100.00
74529;BME280;63009;52.584;5.932;2023-03-01T04:37:22;103145.47;;;-2.31;100.00
74529;BME280;63009;52.584;5.932;2023-03-01T04:39:47;103142.66;;;-2.38;100.00
74529;BME280;63009;52.584;5.932;2023-03-01T04:42:13;103139.66;;;-2.51;100.00
74529;BME280;63009;52.584;5.932;2023-03-01T04:44:38;103145.03;;;-2.45;100.00
74529;BME280;63009;52.584;5.932;2023-03-01T04:47:03;103148.22;;;-2.53;100.00
74529;BME280;63009;52.584;5.932;2023-03-01T04:49:29;103147.03;;;-2.63;100.00
74529;BME280;63009;52.584;5.932;2023-03-01T04:51:54;103141.06;;;-2.60;100.00
74529;BME280;63009;52.584;5.932;2023-03-01T04:54:20;103144.50;;;-2.61;100.00
74529;BME280;63009;52.584;5.932;2023-03-01T04:56:45;103114.59;;;-2.79;100.00
74529;BME280;63009;52.584;5.932;2023-03-01T04:59:10;103117.31;;;-2.74;100.00
74529;BME280;63009;52.584;5.932;2023-03-01T05:01:37;103114.78;;;-2.73;100.00
74529;BME280;63009;52.584;5.932;2023-03-01T05:04:03;103110.44;;;-2.74;100.00
74529;BME280;63009;52.584;5.932;2023-03-01T05:06:30;103105.06;;;-2.80;100.00
74529;BME280;63009;52.584;5.932;2023-03-01T05:08:56;103088.16;;;-2.95;100.00
74529;BME280;63009;52.584;5.932;2023-03-01T05:11:21;103096.69;;;-2.98;100.00
74529;BME280;63009;52.584;5.932;2023-03-01T05:13:47;103086.97;;;-3.05;100.00
74529;BME280;63009;52.584;5.932;2023-03-01T05:16:12;103106.19;;;-2.97;100.00
74529;BME280;63009;52.584;5.932;2023-03-01T05:18:38;103108.63;;;-3.02;100.00
74529;BME280;63009;52.584;5.932;2023-03-01T05:21:05;103105.19;;;-3.02;100.00
74529;BME280;63009;52.584;5.932;2023-03-01T05:23:32;103086.50;;;-3.19;100.00
74529;BME280;63009;52.584;5.932;2023-03-01T05:25:59;103102.16;;;-3.14;100.00
74529;BME280;63009;52.584;5.932;2023-03-01T05:28:25;103095.25;;;-3.15;100.00
74529;BME280;63009;52.584;5.932;2023-03-01T05:30:51;103104.59;;;-3.19;100.00
74529;BME280;63009;52.584;5.932;2023-03-01T05:33:16;103097.78;;;-3.17;100.00
74529;BME280;63009;52.584;5.932;2023-03-01T05:35:43;103097.03;;;-3.13;100.00
74529;BME280;63009;52.584;5.932;2023-03-01T05:38:10;103078.84;;;-3.16;100.00
74529;BME280;63009;52.584;5.932;2023-03-01T05:40:40;103083.03;;;-3.19;100.00
74529;BME280;63009;52.584;5.932;2023-03-01T05:43:06;103085.41;;;-3.25;100.00
74529;BME280;63009;52.584;5.932;2023-03-01T05:45:31;103073.19;;;-3.30;100.00
74529;BME280;63009;52.584;5.932;2023-03-01T05:48:00;103058.25;;;-3.38;100.00
74529;BME280;63009;52.584;5.932;2023-03-01T05:50:27;103068.03;;;-3.30;100.00
74529;BME280;63009;52.584;5.932;2023-03-01T05:53:05;103064.84;;;-3.22;100.00
74529;BME280;63009;52.584;5.932;2023-03-01T05:55:31;103051.69;;;-3.29;100.00
74529;BME280;63009;52.584;5.932;2023-03-01T05:58:01;103068.34;;;-3.20;100.00
74529;BME280;63009;52.584;5.932;2023-03-01T06:00:28;103052.66;;;-3.25;100.00
74529;BME280;63009;52.584;5.932;2023-03-01T06:02:54;103056.03;;;-3.28;100.00
74529;BME280;63009;52.584;5.932;2023-03-01T06:05:20;103062.19;;;-3.24;100.00
74529;BME280;63009;52.584;5.932;2023-03-01T06:07:45;103064.72;;;-3.25;100.00
74529;BME280;63009;52.584;5.932;2023-03-01T06:10:12;103062.75;;;-3.33;100.00
74529;BME280;63009;52.584;5.932;2023-03-01T06:12:39;103066.28;;;-3.31;100.00
74529;BME280;63009;52.584;5.932;2023-03-01T06:15:06;103069.75;;;-3.30;100.00
74529;BME280;63009;52.584;5.932;2023-03-01T06:17:33;103079.16;;;-3.32;100.00
74529;BME280;63009;52.584;5.932;2023-03-01T06:20:04;103068.72;;;-3.35;100.00
74529;BME280;63009;52.584;5.932;2023-03-01T06:22:30;103054.47;;;-3.48;100.00
74529;BME280;63009;52.584;5.932;2023-03-01T06:24:55;103069.16;;;-3.47;100.00
74529;BME280;63009;52.584;5.932;2023-03-01T06:27:20;103068.22;;;-3.49;100.00
74529;BME280;63009;52.584;5.932;2023-03-01T06:29:46;103063.88;;;-3.50;100.00
74529;BME280;63009;52.584;5.932;2023-03-01T06:32:11;103039.03;;;-3.70;100.00
74529;BME280;63009;52.584;5.932;2023-03-01T06:34:36;103075.69;;;-3.56;100.00
74529;BME280;63009;52.584;5.932;2023-03-01T06:37:01;103048.59;;;-3.68;100.00
74529;BME280;63009;52.584;5.932;2023-03-01T06:39:30;103043.31;;;-3.71;100.00
74529;BME280;63009;52.584;5.932;2023-03-01T06:41:55;103068.81;;;-3.56;100.00
74529;BME280;63009;52.584;5.932;2023-03-01T06:44:21;103081.53;;;-3.62;100.00
74529;BME280;63009;52.584;5.932;2023-03-01T06:46:46;103076.38;;;-3.62;100.00
74529;BME280;63009;52.584;5.932;2023-03-01T06:49:12;103081.59;;;-3.61;100.00
74529;BME280;63009;52.584;5.932;2023-03-01T06:51:37;103064.91;;;-3.69;100.00
74529;BME280;63009;52.584;5.932;2023-03-01T06:54:03;103077.31;;;-3.60;100.00
74529;BME280;63009;52.584;5.932;2023-03-01T06:56:29;103074.56;;;-3.65;100.00
74529;BME280;63009;52.584;5.932;2023-03-01T06:58:55;103066.88;;;-3.63;100.00
74529;BME280;63009;52.584;5.932;2023-03-01T07:01:20;103101.44;;;-3.60;100.00
74529;BME280;63009;52.584;5.932;2023-03-01T07:03:45;103093.34;;;-3.69;100.00
74529;BME280;63009;52.584;5.932;2023-03-01T07:06:11;103094.84;;;-3.75;100.00
74529;BME280;63009;52.584;5.932;2023-03-01T07:08:36;103085.28;;;-3.78;100.00
74529;BME280;63009;52.584;5.932;2023-03-01T07:11:02;103091.53;;;-3.71;100.00
74529;BME280;63009;52.584;5.932;2023-03-01T07:13:28;103095.53;;;-3.55;100.00
74529;BME280;63009;52.584;5.932;2023-03-01T07:15:53;103100.22;;;-3.45;100.00
74529;BME280;63009;52.584;5.932;2023-03-01T07:18:19;103097.31;;;-3.31;100.00
74529;BME280;63009;52.584;5.932;2023-03-01T07:20:44;103094.91;;;-3.24;100.00
74529;BME280;63009;52.584;5.932;2023-03-01T07:23:09;103099.28;;;-3.23;100.00
74529;BME280;63009;52.584;5.932;2023-03-01T07:25:34;103095.75;;;-3.25;100.00
74529;BME280;63009;52.584;5.932;2023-03-01T07:28:00;103099.88;;;-3.31;100.00
74529;BME280;63009;52.584;5.932;2023-03-01T07:30:25;103081.47;;;-3.40;100.00
74529;BME280;63009;52.584;5.932;2023-03-01T07:32:54;103107.91;;;-3.23;100.00
74529;BME280;63009;52.584;5.932;2023-03-01T07:35:19;103095.63;;;-3.29;100.00
74529;BME280;63009;52.584;5.932;2023-03-01T07:37:44;103105.69;;;-3.12;100.00
74529;BME280;63009;52.584;5.932;2023-03-01T07:40:10;103110.16;;;-3.08;100.00
74529;BME280;63009;52.584;5.932;2023-03-01T07:42:36;103108.97;;;-2.92;100.00
74529;BME280;63009;52.584;5.932;2023-03-01T07:45:02;103102.13;;;-2.90;100.00
74529;BME280;63009;52.584;5.932;2023-03-01T07:47:28;103101.38;;;-2.61;100.00
74529;BME280;63009;52.584;5.932;2023-03-01T07:49:53;103096.59;;;-2.49;100.00
74529;BME280;63009;52.584;5.932;2023-03-01T07:52:18;103093.59;;;-2.34;100.00
74529;BME280;63009;52.584;5.932;2023-03-01T07:54:44;103078.88;;;-2.35;100.00
74529;BME280;63009;52.584;5.932;2023-03-01T07:57:10;103096.94;;;-2.10;100.00
74529;BME280;63009;52.584;5.932;2023-03-01T07:59:35;103094.88;;;-1.91;100.00
74529;BME280;63009;52.584;5.932;2023-03-01T08:02:01;103103.03;;;-1.77;100.00
74529;BME280;63009;52.584;5.932;2023-03-01T08:04:26;103098.19;;;-1.67;100.00
74529;BME280;63009;52.584;5.932;2023-03-01T08:06:52;103102.88;;;-1.54;100.00
74529;BME280;63009;52.584;5.932;2023-03-01T08:09:17;103098.88;;;-1.41;100.00
74529;BME280;63009;52.584;5.932;2023-03-01T08:11:43;103105.63;;;-1.14;100.00
74529;BME280;63009;52.584;5.932;2023-03-01T08:14:08;103104.41;;;-0.96;99.22
74529;BME280;63009;52.584;5.932;2023-03-01T08:16:33;103098.19;;;-0.68;98.99
74529;BME280;63009;52.584;5.932;2023-03-01T08:19:07;103092.59;;;-0.47;98.91
74529;BME280;63009;52.584;5.932;2023-03-01T08:21:32;103084.47;;;-0.24;98.07
74529;BME280;63009;52.584;5.932;2023-03-01T08:24:00;103100.06;;;0.15;97.89
74529;BME280;63009;52.584;5.932;2023-03-01T08:26:25;103093.97;;;0.58;97.00
74529;BME280;63009;52.584;5.932;2023-03-01T08:28:51;103086.78;;;0.92;94.68
74529;BME280;63009;52.584;5.932;2023-03-01T08:33:43;103078.06;;;1.41;90.64
74529;BME280;63009;52.584;5.932;2023-03-01T08:36:08;103064.72;;;1.80;90.25
74529;BME280;63009;52.584;5.932;2023-03-01T08:38:35;103055.25;;;1.85;86.77
74529;BME280;63009;52.584;5.932;2023-03-01T08:41:02;103062.53;;;2.12;86.36
74529;BME280;63009;52.584;5.932;2023-03-01T08:43:28;103061.03;;;2.32;86.82
74529;BME280;63009;52.584;5.932;2023-03-01T08:45:53;103056.88;;;2.50;86.99
74529;BME280;63009;52.584;5.932;2023-03-01T08:48:18;103057.97;;;2.72;87.18
74529;BME280;63009;52.584;5.932;2023-03-01T08:50:44;103082.53;;;2.93;85.62
74529;BME280;63009;52.584;5.932;2023-03-01T08:53:09;103060.59;;;2.75;85.35
74529;BME280;63009;52.584;5.932;2023-03-01T08:55:34;103071.16;;;2.87;85.72
74529;BME280;63009;52.584;5.932;2023-03-01T08:58:00;103047.53;;;2.72;86.09
74529;BME280;63009;52.584;5.932;2023-03-01T09:00:25;103060.00;;;3.03;86.33
74529;BME280;63009;52.584;5.932;2023-03-01T09:02:50;103045.97;;;2.93;86.44
74529;BME280;63009;52.584;5.932;2023-03-01T09:05:16;103073.16;;;3.15;86.45
74529;BME280;63009;52.584;5.932;2023-03-01T09:07:41;103057.38;;;3.03;85.90
74529;BME280;63009;52.584;5.932;2023-03-01T09:10:07;103058.28;;;3.08;86.86
74529;BME280;63009;52.584;5.932;2023-03-01T09:12:32;103065.44;;;3.32;87.07
74529;BME280;63009;52.584;5.932;2023-03-01T09:14:57;103065.63;;;3.55;85.17
74529;BME280;63009;52.584;5.932;2023-03-01T09:17:23;103066.47;;;3.52;84.44
74529;BME280;63009;52.584;5.932;2023-03-01T09:19:48;103042.09;;;3.60;84.86
74529;BME280;63009;52.584;5.932;2023-03-01T09:22:14;103057.13;;;3.99;83.53
74529;BME280;63009;52.584;5.932;2023-03-01T09:24:39;103054.59;;;4.18;82.48
74529;BME280;63009;52.584;5.932;2023-03-01T09:27:05;103052.94;;;4.50;81.96
74529;BME280;63009;52.584;5.932;2023-03-01T09:29:34;103046.84;;;4.60;80.36
74529;BME280;63009;52.584;5.932;2023-03-01T09:31:59;103046.88;;;4.86;81.30
74529;BME280;63009;52.584;5.932;2023-03-01T09:34:25;103040.78;;;5.03;80.05
74529;BME280;63009;52.584;5.932;2023-03-01T09:36:50;103031.16;;;5.25;75.85
74529;BME280;63009;52.584;5.932;2023-03-01T09:39:16;103033.72;;;5.54;74.98
74529;BME280;63009;52.584;5.932;2023-03-01T09:41:46;103030.16;;;5.83;73.59
74529;BME280;63009;52.584;5.932;2023-03-01T09:44:20;103037.19;;;5.78;71.66
74529;BME280;63009;52.584;5.932;2023-03-01T09:46:49;103028.41;;;5.83;71.27
74529;BME280;63009;52.584;5.932;2023-03-01T09:49:22;103019.63;;;6.00;69.14
74529;BME280;63009;52.584;5.932;2023-03-01T09:51:58;103037.03;;;6.14;70.26
74529;BME280;63009;52.584;5.932;2023-03-01T09:54:24;103028.22;;;6.28;69.33
74529;BME280;63009;52.584;5.932;2023-03-01T09:57:01;103035.16;;;6.42;68.71
74529;BME280;63009;52.584;5.932;2023-03-01T09:59:51;103042.91;;;6.65;66.84
74529;BME280;63009;52.584;5.932;2023-03-01T10:02:42;103035.69;;;6.89;66.45
74529;BME280;63009;52.584;5.932;2023-03-01T10:08:13;103033.75;;;7.13;61.84
74529;BME280;63009;52.584;5.932;2023-03-01T10:10:46;103020.91;;;6.74;60.52
74529;BME280;63009;52.584;5.932;2023-03-01T10:13:21;103022.78;;;6.58;59.54
74529;BME280;63009;52.584;5.932;2023-03-01T10:15:51;103007.09;;;6.50;61.75
74529;BME280;63009;52.584;5.932;2023-03-01T10:18:22;103018.38;;;6.65;60.44
74529;BME280;63009;52.584;5.932;2023-03-01T10:20:55;103015.88;;;6.45;60.96
74529;BME280;63009;52.584;5.932;2023-03-01T10:23:23;102989.59;;;6.49;59.82
74529;BME280;63009;52.584;5.932;2023-03-01T10:31:15;103018.13;;;6.95;57.22
74529;BME280;63009;52.584;5.932;2023-03-01T10:33:44;103017.28;;;6.93;58.36
74529;BME280;63009;52.584;5.932;2023-03-01T10:36:09;103006.84;;;6.82;58.35
74529;BME280;63009;52.584;5.932;2023-03-01T10:38:55;103015.25;;;7.24;56.45
74529;BME280;63009;52.584;5.932;2023-03-01T10:41:23;103020.41;;;7.32;56.36
74529;BME280;63009;52.584;5.932;2023-03-01T10:43:57;103005.75;;;7.08;55.48
74529;BME280;63009;52.584;5.932;2023-03-01T10:46:29;103023.19;;;7.18;55.89
74529;BME280;63009;52.584;5.932;2023-03-01T10:49:12;103013.78;;;6.93;55.58
74529;BME280;63009;52.584;5.932;2023-03-01T10:51:47;103015.38;;;7.10;57.33
74529;BME280;63009;52.584;5.932;2023-03-01T10:54:20;103019.56;;;7.33;57.83
74529;BME280;63009;52.584;5.932;2023-03-01T10:56:48;103012.53;;;7.30;56.98
74529;BME280;63009;52.584;5.932;2023-03-01T10:59:31;103002.16;;;7.20;57.20
74529;BME280;63009;52.584;5.932;2023-03-01T11:02:14;102960.34;;;6.89;56.52
74529;BME280;63009;52.584;5.932;2023-03-01T11:04:39;102988.47;;;6.81;57.37
74529;BME280;63009;52.584;5.932;2023-03-01T11:07:07;102986.78;;;6.71;56.26
74529;BME280;63009;52.584;5.932;2023-03-01T11:09:33;102977.75;;;7.01;57.69
74529;BME280;63009;52.584;5.932;2023-03-01T11:12:13;102981.03;;;7.26;57.76
74529;BME280;63009;52.584;5.932;2023-03-01T11:14:47;102974.88;;;7.28;56.45
74529;BME280;63009;52.584;5.932;2023-03-01T11:17:22;102980.13;;;7.27;54.49
74529;BME280;63009;52.584;5.932;2023-03-01T11:22:49;102974.38;;;6.91;55.47
74529;BME280;63009;52.584;5.932;2023-03-01T11:25:19;102985.78;;;6.87;54.33
74529;BME280;63009;52.584;5.932;2023-03-01T11:27:48;102961.94;;;7.08;54.42
74529;BME280;63009;52.584;5.932;2023-03-01T11:33:11;102971.56;;;7.09;53.25
74529;BME280;63009;52.584;5.932;2023-03-01T11:35:42;102962.78;;;7.09;54.65
74529;BME280;63009;52.584;5.932;2023-03-01T11:45:52;102969.66;;;7.24;53.87
74529;BME280;63009;52.584;5.932;2023-03-01T11:50:55;102969.44;;;7.47;55.08
74529;BME280;63009;52.584;5.932;2023-03-01T11:58:56;102962.50;;;7.36;55.68
74529;BME280;63009;52.584;5.932;2023-03-01T12:02:12;102955.16;;;7.66;57.28
74529;BME280;63009;52.584;5.932;2023-03-01T12:04:38;102960.50;;;7.58;54.02
74529;BME280;63009;52.584;5.932;2023-03-01T12:07:30;102956.50;;;7.25;54.73
74529;BME280;63009;52.584;5.932;2023-03-01T12:12:51;102945.72;;;7.45;55.21
74529;BME280;63009;52.584;5.932;2023-03-01T12:32:00;102920.81;;;7.00;52.65
74529;BME280;63009;52.584;5.932;2023-03-01T12:34:41;102918.88;;;7.20;53.96
74529;BME280;63009;52.584;5.932;2023-03-01T12:37:20;102919.00;;;7.06;53.46
74529;BME280;63009;52.584;5.932;2023-03-01T12:43:14;102902.97;;;7.28;53.28
74529;BME280;63009;52.584;5.932;2023-03-01T12:50:47;102875.13;;;7.10;54.15
74529;BME280;63009;52.584;5.932;2023-03-01T12:53:26;102887.25;;;7.25;56.10
74529;BME280;63009;52.584;5.932;2023-03-01T12:55:54;102861.19;;;7.02;53.85
74529;BME280;63009;52.584;5.932;2023-03-01T13:01:05;102882.72;;;7.36;54.55
74529;BME280;63009;52.584;5.932;2023-03-01T13:09:40;102873.09;;;7.35;53.97
74529;BME280;63009;52.584;5.932;2023-03-01T13:15:36;102868.91;;;7.17;55.24
74529;BME280;63009;52.584;5.932;2023-03-01T13:26:14;102851.91;;;7.47;54.43
74529;BME280;63009;52.584;5.932;2023-03-01T13:33:51;102856.22;;;7.51;52.96
74529;BME280;63009;52.584;5.932;2023-03-01T13:38:56;102842.06;;;7.60;52.70
74529;BME280;63009;52.584;5.932;2023-03-01T13:41:52;102842.94;;;7.59;52.03
74529;BME280;63009;52.584;5.932;2023-03-01T13:44:30;102839.31;;;7.69;51.52
74529;BME280;63009;52.584;5.932;2023-03-01T13:49:41;102836.22;;;7.39;51.05
74529;BME280;63009;52.584;5.932;2023-03-01T13:52:28;102825.59;;;7.47;51.63
74529;BME280;63009;52.584;5.932;2023-03-01T13:54:56;102822.84;;;7.55;51.85
74529;BME280;63009;52.584;5.932;2023-03-01T13:57:26;102826.25;;;7.63;51.51
74529;BME280;63009;52.584;5.932;2023-03-01T13:59:54;102811.31;;;7.65;50.82
74529;BME280;63009;52.584;5.932;2023-03-01T14:02:20;102817.50;;;7.59;50.86
74529;BME280;63009;52.584;5.932;2023-03-01T14:04:56;102781.06;;;7.33;50.55
74529;BME280;63009;52.584;5.932;2023-03-01T14:07:23;102819.28;;;7.57;51.09
74529;BME280;63009;52.584;5.932;2023-03-01T14:09:56;102815.00;;;7.52;50.47
74529;BME280;63009;52.584;5.932;2023-03-01T14:12:35;102800.16;;;7.48;51.47
74529;BME280;63009;52.584;5.932;2023-03-01T14:15:42;102790.75;;;7.28;51.31
74529;BME280;63009;52.584;5.932;2023-03-01T14:18:15;102796.97;;;7.24;52.77
74529;BME280;63009;52.584;5.932;2023-03-01T14:20:44;102792.50;;;7.29;52.55
74529;BME280;63009;52.584;5.932;2023-03-01T14:23:23;102790.72;;;7.33;51.44
74529;BME280;63009;52.584;5.932;2023-03-01T14:25:51;102782.94;;;7.24;50.62
74529;BME280;63009;52.584;5.932;2023-03-01T14:28:19;102779.44;;;7.23;50.72
74529;BME280;63009;52.584;5.932;2023-03-01T14:30:47;102774.94;;;7.33;50.57
74529;BME280;63009;52.584;5.932;2023-03-01T14:33:28;102770.59;;;7.29;51.22
74529;BME280;63009;52.584;5.932;2023-03-01T14:36:12;102765.47;;;7.20;51.28